Time;durP1;ratioP1;P1;durP2;ratioP2;P2;SDS_P1;SDS_P2;PMS_P1;PMS_P2;Temp;Humidity;BMP_temperature;BMP_pressure;BME280_temperature;BME280_humidity;BME280_pressure;Samples;Min_cycle;Max_cycle;Signal;HPM_P1;HPM_P2
2023/07/13 00:01:59;;;;;;;9.45;3.45;;;15.40;84.30;;;;;;5071662;28;20024;-43
2023/07/13 00:04:25;;;;;;;6.35;3.55;;;15.30;84.30;;;;;;5052618;28;20056;-43
2023/07/13 00:06:53;;;;;;;7.03;3.30;;;15.40;84.30;;;;;;5054054;28;20058;-43
2023/07/13 00:09:21;;;;;;;7.55;3.63;;;15.40;84.30;;;;;;5069957;28;20025;-43
2023/07/13 00:11:55;;;;;;;6.00;3.22;;;15.40;84.20;;;;;;5073413;28;20048;-44
2023/07/13 00:14:25;;;;;;;5.05;2.95;;;15.40;84.20;;;;;;5053405;28;20025;-43
2023/07/13 00:16:52;;;;;;;8.55;4.15;;;15.40;84.20;;;;;;5052413;28;20397;-44
2023/07/13 00:19:21;;;;;;;5.57;3.78;;;15.40;83.90;;;;;;5054866;28;20048;-43
2023/07/13 00:21:48;;;;;;;6.20;3.25;;;15.40;84.30;;;;;;5052934;28;20029;-43
2023/07/13 00:24:18;;;;;;;7.53;3.58;;;15.40;84.20;;;;;;5063437;28;20028;-43
2023/07/13 00:26:47;;;;;;;6.88;4.38;;;15.40;84.00;;;;;;5064184;28;20458;-43
2023/07/13 00:29:16;;;;;;;6.88;3.97;;;15.40;84.20;;;;;;5053072;28;20032;-43
2023/07/13 00:31:43;;;;;;;10.32;4.32;;;15.40;84.10;;;;;;5065464;28;20052;-43
2023/07/13 00:34:10;;;;;;;6.70;3.58;;;15.40;84.10;;;;;;5060413;28;20032;-45
2023/07/13 00:36:37;;;;;;;8.40;3.38;;;15.40;84.20;;;;;;5070335;28;20028;-44
2023/07/13 00:39:04;;;;;;;6.30;3.15;;;15.40;84.00;;;;;;5069000;28;20028;-44
2023/07/13 00:41:32;;;;;;;8.00;4.03;;;15.40;83.90;;;;;;5071961;28;20032;-44
2023/07/13 00:43:59;;;;;;;9.20;3.63;;;15.40;83.90;;;;;;5072443;28;20028;-44
2023/07/13 00:46:33;;;;;;;12.57;3.63;;;15.40;84.20;;;;;;5070226;28;20488;-43
2023/07/13 00:49:05;;;;;;;7.65;4.43;;;15.40;84.20;;;;;;5053133;28;20037;-43
2023/07/13 00:51:36;;;;;;;5.55;3.53;;;15.40;84.20;;;;;;5052242;28;20082;-43
2023/07/13 00:54:09;;;;;;;9.25;4.28;;;15.40;84.50;;;;;;5056995;28;20051;-45
2023/07/13 00:56:37;;;;;;;10.98;4.20;;;15.40;84.10;;;;;;5071424;28;20060;-44
2023/07/13 00:59:06;;;;;;;5.75;3.42;;;15.40;84.30;;;;;;5072349;28;20017;-43
2023/07/13 01:01:33;;;;;;;7.05;3.75;;;15.40;84.00;;;;;;5070639;28;20029;-43
2023/07/13 01:04:00;;;;;;;6.55;4.22;;;15.40;84.20;;;;;;5064453;28;20029;-44
2023/07/13 01:06:28;;;;;;;7.10;3.53;;;15.40;84.50;;;;;;5065034;28;20115;-43
2023/07/13 01:09:00;;;;;;;7.75;3.63;;;15.40;84.50;;;;;;5071544;28;20116;-45
2023/07/13 01:11:26;;;;;;;6.72;3.42;;;15.50;84.40;;;;;;5069918;28;20028;-44
2023/07/13 01:13:54;;;;;;;5.60;3.88;;;15.50;84.10;;;;;;5054175;28;20093;-44
2023/07/13 01:16:27;;;;;;;7.82;3.53;;;15.50;84.40;;;;;;5053481;28;20108;-45
2023/07/13 01:18:54;;;;;;;8.80;3.72;;;15.50;84.30;;;;;;5070353;28;20362;-47
2023/07/13 01:21:23;;;;;;;7.53;3.85;;;15.50;84.00;;;;;;5072575;28;20430;-44
2023/07/13 01:23:49;;;;;;;7.32;3.88;;;15.50;84.10;;;;;;5071602;28;20349;-44
2023/07/13 01:26:16;;;;;;;7.57;3.80;;;15.40;84.10;;;;;;5066061;28;20040;-44
2023/07/13 01:28:43;;;;;;;6.25;3.63;;;15.40;84.20;;;;;;5070321;28;20118;-47
2023/07/13 01:31:11;;;;;;;6.60;3.20;;;15.40;84.00;;;;;;5048696;28;20021;-44
2023/07/13 01:33:40;;;;;;;7.65;3.65;;;15.40;84.30;;;;;;5070571;28;20041;-44
2023/07/13 01:36:11;;;;;;;7.78;4.22;;;15.40;84.30;;;;;;5071806;28;20358;-44
2023/07/13 01:38:37;;;;;;;4.85;2.85;;;15.30;84.30;;;;;;5067313;28;20043;-44
2023/07/13 01:41:07;;;;;;;8.50;3.85;;;15.30;84.40;;;;;;5069627;28;20024;-48
2023/07/13 01:43:33;;;;;;;11.15;4.10;;;15.30;84.50;;;;;;5069437;28;20025;-46
2023/07/13 01:45:59;;;;;;;7.93;3.40;;;15.30;84.70;;;;;;5070582;28;20032;-44
2023/07/13 01:48:26;;;;;;;8.93;3.75;;;15.20;84.60;;;;;;5069109;28;20028;-43
2023/07/13 01:50:52;;;;;;;7.70;3.40;;;15.20;84.50;;;;;;5071545;28;20381;-44
2023/07/13 01:53:19;;;;;;;8.43;4.63;;;15.20;84.70;;;;;;5070948;28;20031;-44
2023/07/13 01:55:47;;;;;;;10.30;3.95;;;15.20;84.60;;;;;;5051206;28;20406;-46
2023/07/13 01:58:14;;;;;;;5.47;3.75;;;15.10;84.70;;;;;;5074490;28;20036;-43
2023/07/13 02:00:41;;;;;;;6.97;3.42;;;15.10;84.70;;;;;;5073659;28;20408;-44
2023/07/13 02:03:07;;;;;;;7.35;4.53;;;15.10;84.70;;;;;;5073907;28;20103;-44
2023/07/13 02:05:34;;;;;;;13.48;3.90;;;15.10;84.40;;;;;;5074614;28;20506;-44
2023/07/13 02:08:01;;;;;;;7.53;4.32;;;15.10;84.90;;;;;;5073079;28;20075;-44
2023/07/13 02:10:28;;;;;;;9.55;3.97;;;15.00;84.70;;;;;;5062833;28;20438;-43
2023/07/13 02:12:57;;;;;;;9.20;3.95;;;15.00;84.80;;;;;;5068759;28;20123;-44
2023/07/13 02:15:27;;;;;;;9.77;3.88;;;15.10;84.90;;;;;;5055514;28;20131;-45
2023/07/13 02:17:54;;;;;;;6.63;3.92;;;15.00;84.90;;;;;;5074448;28;20380;-44
2023/07/13 02:20:23;;;;;;;6.57;3.67;;;15.00;84.80;;;;;;5075338;28;20474;-44
2023/07/13 02:22:49;;;;;;;5.97;4.53;;;15.00;85.00;;;;;;5074260;28;20111;-45
2023/07/13 02:25:16;;;;;;;7.15;4.00;;;15.00;85.10;;;;;;5066859;28;20409;-44
2023/07/13 02:27:42;;;;;;;5.28;3.63;;;15.10;85.50;;;;;;5066546;28;20033;-46
2023/07/13 02:30:11;;;;;;;7.47;3.88;;;15.00;85.20;;;;;;5072860;28;20036;-44
2023/07/13 02:32:37;;;;;;;8.75;4.30;;;15.10;85.40;;;;;;5057275;28;20033;-45
2023/07/13 02:35:04;;;;;;;8.48;3.80;;;15.10;85.60;;;;;;5054997;28;20033;-44
2023/07/13 02:37:31;;;;;;;7.97;3.30;;;15.20;85.50;;;;;;5062857;28;20024;-44
2023/07/13 02:39:58;;;;;;;7.60;4.20;;;15.10;85.60;;;;;;5057243;28;20048;-44
2023/07/13 02:42:26;;;;;;;6.78;3.70;;;15.20;85.80;;;;;;5073064;28;20024;-44
2023/07/13 02:44:55;;;;;;;7.50;4.00;;;15.20;85.70;;;;;;5074921;28;20395;-44
2023/07/13 02:47:21;;;;;;;10.60;5.28;;;15.10;85.50;;;;;;5072312;28;20032;-44
2023/07/13 02:49:48;;;;;;;8.85;3.97;;;15.20;85.80;;;;;;5073705;28;20121;-45
2023/07/13 02:52:15;;;;;;;9.82;4.32;;;15.20;85.90;;;;;;5065943;28;20029;-45
2023/07/13 02:54:42;;;;;;;8.15;4.53;;;15.20;86.10;;;;;;5073325;28;20039;-46
2023/07/13 02:57:09;;;;;;;11.50;4.50;;;15.20;86.00;;;;;;5072412;28;20067;-47
2023/07/13 02:59:36;;;;;;;9.57;4.22;;;15.10;85.90;;;;;;5074092;28;20027;-44
2023/07/13 03:02:06;;;;;;;7.03;4.43;;;15.20;86.20;;;;;;5062556;28;20042;-44
2023/07/13 03:04:32;;;;;;;10.15;4.10;;;15.20;86.30;;;;;;5062370;28;20034;-44
2023/07/13 03:06:59;;;;;;;10.73;4.07;;;15.20;86.10;;;;;;5073270;28;20036;-44
2023/07/13 03:09:33;;;;;;;10.80;4.10;;;15.20;86.20;;;;;;5072341;28;20051;-44
2023/07/13 03:11:58;;;;;;;12.70;4.32;;;15.20;86.20;;;;;;5054151;28;20029;-45
2023/07/13 03:14:26;;;;;;;12.18;4.45;;;15.30;86.50;;;;;;5070340;28;20039;-44
2023/07/13 03:16:53;;;;;;;9.77;4.30;;;15.30;86.60;;;;;;5064330;28;20108;-45
2023/07/13 03:19:20;;;;;;;17.63;4.10;;;15.30;86.40;;;;;;5054150;28;20422;-44
2023/07/13 03:21:47;;;;;;;11.80;5.00;;;15.30;86.70;;;;;;5054062;28;20108;-44
2023/07/13 03:24:14;;;;;;;10.52;4.20;;;15.30;86.60;;;;;;5071423;28;20676;-44
2023/07/13 03:26:41;;;;;;;9.23;3.97;;;15.30;86.80;;;;;;5059187;28;20094;-45
2023/07/13 03:29:07;;;;;;;9.35;3.30;;;15.40;86.90;;;;;;5069582;28;20058;-44
2023/07/13 03:31:36;;;;;;;10.63;4.22;;;15.40;86.90;;;;;;5072094;28;20020;-45
2023/07/13 03:34:08;;;;;;;13.88;5.25;;;15.40;86.80;;;;;;5053972;28;20025;-44
2023/07/13 03:36:37;;;;;;;16.20;5.00;;;15.40;86.90;;;;;;5054115;28;20457;-44
2023/07/13 03:39:08;;;;;;;13.15;3.78;;;15.40;86.90;;;;;;5062037;28;20025;-44
2023/07/13 03:41:34;;;;;;;11.68;5.20;;;15.40;87.20;;;;;;5072639;28;20575;-45
2023/07/13 03:44:00;;;;;;;8.65;3.95;;;15.40;87.10;;;;;;5072981;28;20028;-46
2023/07/13 03:46:27;;;;;;;16.83;3.83;;;15.40;87.00;;;;;;5069732;28;20051;-45
2023/07/13 03:48:54;;;;;;;14.55;4.68;;;15.40;87.10;;;;;;5071722;28;20021;-44
2023/07/13 03:51:21;;;;;;;9.57;3.65;;;15.40;87.10;;;;;;5052610;28;20020;-45
2023/07/13 03:53:48;;;;;;;10.10;3.15;;;15.40;87.10;;;;;;5071596;28;20100;-45
2023/07/13 03:56:17;;;;;;;8.93;3.08;;;15.40;87.10;;;;;;5072591;28;20043;-46
2023/07/13 03:58:46;;;;;;;18.20;4.35;;;15.40;87.00;;;;;;5061885;28;20032;-44
2023/07/13 04:01:15;;;;;;;9.70;3.55;;;15.40;86.90;;;;;;5069775;28;20370;-44
2023/07/13 04:03:42;;;;;;;7.50;3.03;;;15.40;86.90;;;;;;5070167;28;20033;-49
2023/07/13 04:06:21;;;;;;;9.13;3.83;;;15.40;86.90;;;;;;5054012;28;20024;-45
2023/07/13 04:08:50;;;;;;;10.52;4.07;;;15.40;86.80;;;;;;5055684;28;20036;-45
2023/07/13 04:11:21;;;;;;;9.88;4.57;;;15.40;86.90;;;;;;5072264;28;20035;-44
2023/07/13 04:13:48;;;;;;;7.75;3.08;;;15.50;87.00;;;;;;5069697;28;20033;-49
2023/07/13 04:16:17;;;;;;;8.25;3.60;;;15.40;87.10;;;;;;5071399;28;20108;-44
2023/07/13 04:18:43;;;;;;;13.35;4.38;;;15.40;87.10;;;;;;5067021;28;20474;-47
2023/07/13 04:21:10;;;;;;;8.55;3.05;;;15.50;87.10;;;;;;5060290;28;20028;-45
2023/07/13 04:23:37;;;;;;;8.25;3.30;;;15.60;87.20;;;;;;5060571;28;20043;-49
2023/07/13 04:26:06;;;;;;;7.22;3.55;;;15.60;87.20;;;;;;5072482;28;20036;-46
2023/07/13 04:28:33;;;;;;;9.70;4.40;;;15.60;87.20;;;;;;5071278;28;20028;-45
2023/07/13 04:31:00;;;;;;;12.18;4.13;;;15.60;87.10;;;;;;5061382;28;20485;-45
2023/07/13 04:33:27;;;;;;;9.10;3.80;;;15.60;87.00;;;;;;5071108;28;20036;-45
2023/07/13 04:35:56;;;;;;;9.48;3.20;;;15.60;87.30;;;;;;5071215;28;20036;-45
2023/07/13 04:38:30;;;;;;;11.60;3.03;;;15.70;87.40;;;;;;5067452;28;20122;-45
2023/07/13 04:41:05;;;;;;;14.30;3.83;;;15.80;87.30;;;;;;5071397;28;20025;-49
2023/07/13 04:43:32;;;;;;;11.48;3.90;;;15.90;87.20;;;;;;5053794;28;20508;-44
2023/07/13 04:46:11;;;;;;;10.90;4.05;;;15.90;87.10;;;;;;5069952;28;20028;-45
2023/07/13 04:48:38;;;;;;;12.25;3.70;;;15.90;86.80;;;;;;5070550;28;20040;-44
2023/07/13 04:51:05;;;;;;;10.25;3.60;;;15.90;87.00;;;;;;5069504;28;20025;-44
2023/07/13 04:53:32;;;;;;;12.00;4.10;;;16.00;86.90;;;;;;5071102;28;20025;-45
2023/07/13 04:56:02;;;;;;;7.20;2.83;;;16.00;86.90;;;;;;5042059;28;20024;-44
2023/07/13 04:58:29;;;;;;;8.13;2.78;;;16.00;86.70;;;;;;5065229;28;20106;-45
2023/07/13 05:01:04;;;;;;;8.68;3.78;;;16.10;86.80;;;;;;5070709;28;20032;-47
2023/07/13 05:03:31;;;;;;;12.15;4.32;;;16.00;86.90;;;;;;5068507;28;20020;-48
2023/07/13 05:06:00;;;;;;;16.38;3.65;;;16.00;86.80;;;;;;5072495;28;20075;-44
2023/07/13 05:08:27;;;;;;;12.40;4.32;;;16.10;86.90;;;;;;5069235;28;20453;-45
2023/07/13 05:10:54;;;;;;;10.98;3.58;;;16.10;87.00;;;;;;5068506;28;20462;-47
2023/07/13 05:13:21;;;;;;;8.95;3.45;;;16.10;86.90;;;;;;5050612;28;20328;-45
2023/07/13 05:15:59;;;;;;;11.93;3.58;;;16.20;86.80;;;;;;5067448;28;20078;-48
2023/07/13 05:18:25;;;;;;;11.00;3.33;;;16.30;86.90;;;;;;5071201;28;20025;-45
2023/07/13 05:21:13;;;;;;;10.13;3.92;;;16.40;86.80;;;;;;5053055;28;20134;-45
2023/07/13 05:23:41;;;;;;;13.30;3.40;;;16.40;86.50;;;;;;5048821;28;20178;-45
2023/07/13 05:26:08;;;;;;;13.48;3.55;;;16.40;86.70;;;;;;5060751;28;20033;-45
2023/07/13 05:28:36;;;;;;;12.32;3.83;;;16.30;86.60;;;;;;5060601;28;20024;-46
2023/07/13 05:31:03;;;;;;;14.23;3.17;;;16.40;86.70;;;;;;5071419;28;20358;-46
2023/07/13 05:33:30;;;;;;;9.70;3.10;;;16.40;86.80;;;;;;5072062;28;20016;-44
2023/07/13 05:35:56;;;;;;;10.70;3.78;;;16.40;86.80;;;;;;5057171;28;20057;-45
2023/07/13 05:38:24;;;;;;;14.57;4.32;;;16.40;87.10;;;;;;5074652;28;20101;-45
2023/07/13 05:40:53;;;;;;;13.13;4.60;;;16.50;87.10;;;;;;5069543;28;20035;-45
2023/07/13 05:43:19;;;;;;;12.33;3.80;;;16.60;87.00;;;;;;5057504;28;20036;-46
2023/07/13 05:45:46;;;;;;;14.25;3.70;;;16.70;87.00;;;;;;5072827;28;20465;-45
2023/07/13 05:48:16;;;;;;;12.70;4.72;;;16.80;87.10;;;;;;5072751;28;20088;-46
2023/07/13 05:50:43;;;;;;;8.85;3.17;;;16.90;87.20;;;;;;5072967;28;20024;-47
2023/07/13 05:53:09;;;;;;;11.70;4.13;;;17.20;87.00;;;;;;5071080;28;20021;-45
2023/07/13 05:55:35;;;;;;;12.40;3.50;;;17.20;86.00;;;;;;5069102;28;20545;-47
2023/07/13 05:58:04;;;;;;;16.77;5.38;;;17.30;86.10;;;;;;5073893;28;20603;-48
2023/07/13 06:00:30;;;;;;;12.77;3.72;;;17.50;85.40;;;;;;5054093;28;20044;-47
2023/07/13 06:02:58;;;;;;;10.90;4.03;;;17.60;84.90;;;;;;5071735;28;20115;-48
2023/07/13 06:05:25;;;;;;;16.73;3.85;;;17.80;84.20;;;;;;5074726;28;20040;-47
2023/07/13 06:07:52;;;;;;;9.95;3.10;;;17.90;84.50;;;;;;5057105;28;20029;-46
2023/07/13 06:10:19;;;;;;;13.02;3.67;;;18.00;84.20;;;;;;5072911;28;20029;-46
2023/07/13 06:12:45;;;;;;;8.77;3.15;;;18.20;83.70;;;;;;5073851;28;20027;-49
2023/07/13 06:15:12;;;;;;;17.52;4.55;;;18.30;83.60;;;;;;5072725;28;20028;-46
2023/07/13 06:17:39;;;;;;;10.20;3.22;;;18.30;83.10;;;;;;5068156;28;20128;-49
2023/07/13 06:20:05;;;;;;;12.48;3.80;;;18.20;83.10;;;;;;5059663;28;20056;-47
2023/07/13 06:22:32;;;;;;;9.15;3.42;;;18.30;83.60;;;;;;5055165;28;20395;-46
2023/07/13 06:24:59;;;;;;;12.30;3.88;;;18.30;83.60;;;;;;5072961;28;20338;-47
2023/07/13 06:27:25;;;;;;;9.73;3.88;;;18.30;83.20;;;;;;5074149;28;20121;-47
2023/07/13 06:29:52;;;;;;;14.95;4.10;;;18.30;83.00;;;;;;5053007;28;20131;-48
2023/07/13 06:32:21;;;;;;;17.10;4.05;;;18.30;83.20;;;;;;5055072;28;20111;-49
2023/07/13 06:34:51;;;;;;;10.63;3.70;;;18.20;83.50;;;;;;5074332;28;20066;-47
2023/07/13 06:37:17;;;;;;;;;;;18.30;83.30;;;;;;5070093;28;20366;-47
2023/07/13 06:39:44;;;;;;;13.90;4.82;;;18.30;83.40;;;;;;5075130;28;19908;-45
2023/07/13 06:42:10;;;;;;;11.07;4.57;;;18.40;83.20;;;;;;5069009;28;20029;-51
2023/07/13 06:44:37;;;;;;;17.73;4.32;;;18.50;83.00;;;;;;5067378;28;20028;-48
2023/07/13 06:47:04;;;;;;;13.82;4.40;;;18.60;82.80;;;;;;5069461;28;20389;-45
2023/07/13 06:49:31;;;;;;;13.15;4.88;;;18.60;82.20;;;;;;5073888;28;20352;-46
2023/07/13 06:52:01;;;;;;;14.48;4.82;;;18.40;82.00;;;;;;5073246;28;20028;-46
2023/07/13 06:54:32;;;;;;;12.75;5.75;;;18.40;82.30;;;;;;5060618;28;20028;-46
2023/07/13 06:56:58;;;;;;;15.57;5.63;;;18.50;82.30;;;;;;5062025;28;20052;-49
2023/07/13 06:59:25;;;;;;;13.25;4.90;;;18.60;82.20;;;;;;5074987;28;20114;-47
2023/07/13 07:01:51;;;;;;;13.55;4.45;;;18.60;82.70;;;;;;5062737;28;20029;-46
2023/07/13 07:04:18;;;;;;;8.98;3.67;;;18.90;82.70;;;;;;5070790;28;20040;-46
2023/07/13 07:06:44;;;;;;;14.25;4.85;;;19.00;81.00;;;;;;5073087;28;20432;-46
2023/07/13 07:09:11;;;;;;;10.02;3.42;;;19.00;80.90;;;;;;5073384;28;20171;-47
2023/07/13 07:11:38;;;;;;;13.35;4.53;;;19.00;81.70;;;;;;5061206;28;20028;-46
2023/07/13 07:14:05;;;;;;;11.00;4.28;;;19.20;81.10;;;;;;5065055;28;20090;-49
2023/07/13 07:16:32;;;;;;;10.43;4.05;;;19.30;81.20;;;;;;5069105;28;20095;-46
2023/07/13 07:18:57;;;;;;;11.20;3.78;;;19.40;80.30;;;;;;5073460;28;20056;-48
2023/07/13 07:21:25;;;;;;;9.43;3.85;;;19.50;80.00;;;;;;5059323;28;20037;-48
2023/07/13 07:23:55;;;;;;;11.88;3.33;;;19.40;79.90;;;;;;5071697;28;20024;-47
2023/07/13 07:26:21;;;;;;;9.63;3.60;;;19.50;79.50;;;;;;5069448;28;20024;-46
2023/07/13 07:28:46;;;;;;;9.48;3.92;;;19.70;79.20;;;;;;5074301;28;20043;-46
2023/07/13 07:31:18;;;;;;;11.70;3.97;;;19.80;77.80;;;;;;5052032;28;20025;-46
2023/07/13 07:33:45;;;;;;;9.00;3.58;;;19.90;77.20;;;;;;5066347;28;20028;-47
2023/07/13 07:36:13;;;;;;;7.78;2.83;;;20.20;76.90;;;;;;5072822;28;20023;-48
2023/07/13 07:38:40;;;;;;;12.50;3.83;;;20.70;76.40;;;;;;5069561;28;20029;-46
2023/07/13 07:41:06;;;;;;;12.93;3.63;;;21.00;75.10;;;;;;5071763;28;20037;-48
2023/07/13 07:43:33;;;;;;;7.10;2.90;;;21.00;73.50;;;;;;5054215;28;20079;-46
2023/07/13 07:46:00;;;;;;;9.48;3.33;;;20.90;73.70;;;;;;5071966;28;20032;-45
2023/07/13 07:48:27;;;;;;;19.92;4.70;;;20.90;74.30;;;;;;5069544;28;20056;-47
2023/07/13 07:50:53;;;;;;;7.18;2.88;;;21.00;73.60;;;;;;5071727;28;20461;-46
2023/07/13 07:53:20;;;;;;;8.60;2.53;;;21.20;73.40;;;;;;5062442;28;20020;-48
2023/07/13 07:55:47;;;;;;;8.45;2.50;;;21.50;70.60;;;;;;5055151;28;20048;-46
2023/07/13 07:58:15;;;;;;;8.02;2.70;;;21.90;72.50;;;;;;5071018;28;20110;-46
2023/07/13 08:00:41;;;;;;;6.40;2.42;;;22.20;70.00;;;;;;5062669;28;20119;-47
2023/07/13 08:03:07;;;;;;;7.60;2.45;;;21.80;69.90;;;;;;5073578;28;20103;-48
2023/07/13 08:05:36;;;;;;;7.57;2.40;;;21.30;69.40;;;;;;5069763;28;20037;-49
2023/07/13 08:08:03;;;;;;;6.60;2.20;;;21.10;69.20;;;;;;5066042;28;20450;-46
2023/07/13 08:10:30;;;;;;;6.60;1.90;;;21.30;68.90;;;;;;5071324;28;20031;-46
2023/07/13 08:13:00;;;;;;;5.72;1.23;;;21.70;66.00;;;;;;5069393;28;20020;-53
2023/07/13 08:15:26;;;;;;;7.47;1.77;;;22.30;66.00;;;;;;5070728;28;20116;-47
2023/07/13 08:17:51;;;;;;;7.45;2.00;;;22.80;63.90;;;;;;5072354;28;20112;-49
2023/07/13 08:20:18;;;;;;;6.38;1.75;;;23.20;63.50;;;;;;5072254;28;20065;-47
2023/07/13 08:22:46;;;;;;;7.18;2.05;;;23.60;62.90;;;;;;5055446;28;20025;-50
2023/07/13 08:25:13;;;;;;;5.10;1.80;;;23.90;62.70;;;;;;5052995;28;20029;-47
2023/07/13 08:27:41;;;;;;;11.00;2.40;;;24.10;61.70;;;;;;5063700;28;20024;-50
2023/07/13 08:30:08;;;;;;;7.70;2.22;;;24.00;60.90;;;;;;5051073;28;20036;-47
2023/07/13 08:32:38;;;;;;;3.85;1.90;;;23.60;60.60;;;;;;5070533;28;20028;-47
2023/07/13 08:35:06;;;;;;;14.40;2.15;;;23.30;61.00;;;;;;5054733;28;20170;-47
2023/07/13 08:37:33;;;;;;;5.70;1.65;;;22.50;61.00;;;;;;5063499;28;20062;-47
2023/07/13 08:39:59;;;;;;;4.35;1.42;;;22.20;62.00;;;;;;5052862;28;20040;-46
2023/07/13 08:42:51;;;;;;;5.07;1.40;;;22.00;60.70;;;;;;5070882;28;20109;-47
2023/07/13 08:45:43;;;;;;;4.82;1.40;;;22.40;62.70;;;;;;5071691;28;20035;-49
2023/07/13 08:48:40;;;;;;;5.03;1.60;;;22.80;62.30;;;;;;5053985;28;20043;-50
2023/07/13 08:51:43;;;;;;;7.25;1.77;;;23.10;60.50;;;;;;5051649;28;20443;-48
2023/07/13 08:54:51;;;;;;;3.05;1.02;;;23.80;59.20;;;;;;5051787;28;20052;-47
2023/07/13 08:57:22;;;;;;;3.33;1.40;;;23.00;57.90;;;;;;5070195;28;20111;-47
2023/07/13 08:59:50;;;;;;;5.28;1.15;;;22.90;58.20;;;;;;5070354;28;20032;-47
2023/07/13 09:02:41;;;;;;;3.72;1.52;;;23.00;57.70;;;;;;5070451;28;20433;-49
2023/07/13 09:05:34;;;;;;;4.80;1.40;;;23.10;58.50;;;;;;5067231;28;20032;-48
2023/07/13 09:08:21;;;;;;;8.77;1.90;;;22.90;58.20;;;;;;5056387;28;20037;-52
2023/07/13 09:10:58;;;;;;;7.45;1.45;;;22.80;57.90;;;;;;5070343;28;20476;-48
2023/07/13 09:13:51;;;;;;;6.07;1.70;;;22.50;58.40;;;;;;5056903;28;20029;-49
2023/07/13 09:16:19;;;;;;;4.03;1.55;;;22.20;59.10;;;;;;5064932;28;20025;-51
2023/07/13 09:18:51;;;;;;;3.03;1.30;;;21.60;60.10;;;;;;5075267;28;20124;-49
2023/07/13 09:21:40;;;;;;;3.47;1.33;;;21.40;62.30;;;;;;5074703;28;20476;-50
2023/07/13 09:24:32;;;;;;;6.30;1.57;;;21.60;62.50;;;;;;5074012;28;20027;-50
2023/07/13 09:26:59;;;;;;;3.88;1.25;;;21.60;62.60;;;;;;5075284;28;20036;-48
2023/07/13 09:29:35;;;;;;;5.70;1.85;;;21.20;62.40;;;;;;5074227;28;20021;-48
2023/07/13 09:32:10;;;;;;;4.85;1.40;;;20.90;63.30;;;;;;5074451;28;20021;-49
2023/07/13 09:34:37;;;;;;;3.95;1.80;;;20.80;64.10;;;;;;5072604;28;20039;-48
2023/07/13 09:37:04;;;;;;;6.50;1.80;;;20.70;64.80;;;;;;5074382;28;20111;-50
2023/07/13 09:39:41;;;;;;;3.50;1.30;;;20.90;64.80;;;;;;5057858;28;20372;-48
2023/07/13 09:42:26;;;;;;;3.28;1.50;;;20.80;65.30;;;;;;5065978;28;20021;-48
2023/07/13 09:44:59;;;;;;;10.20;2.20;;;20.90;65.00;;;;;;5055876;28;20474;-46
2023/07/13 09:47:31;;;;;;;4.93;1.85;;;21.50;64.80;;;;;;5074316;28;20124;-49
2023/07/13 09:50:17;;;;;;;4.53;2.13;;;22.20;61.20;;;;;;5074011;28;20060;-50
2023/07/13 09:52:47;;;;;;;4.60;1.60;;;22.90;60.50;;;;;;5060059;28;20472;-48
2023/07/13 09:55:27;;;;;;;5.05;1.58;;;23.60;58.00;;;;;;5057192;28;20025;-48
2023/07/13 09:57:56;;;;;;;5.18;2.17;;;24.40;58.40;;;;;;5074751;28;20086;-47
2023/07/13 10:00:27;;;;;;;;;;;24.40;55.50;;;;;;5068375;28;20068;-48
2023/07/13 10:03:24;;;;;;;4.95;2.00;;;23.70;56.50;;;;;;5064400;28;19922;-51
2023/07/13 10:05:51;;;;;;;4.07;1.77;;;23.00;58.20;;;;;;5071683;28;20036;-48
2023/07/13 10:08:36;;;;;;;4.13;1.55;;;22.10;61.10;;;;;;5056945;28;20035;-47
2023/07/13 10:11:37;;;;;;;4.90;1.67;;;21.30;64.60;;;;;;5056319;28;20335;-44
2023/07/13 10:14:15;;;;;;;6.03;2.83;;;20.70;69.40;;;;;;5022274;28;20037;-47
2023/07/13 10:16:45;;;;;;;5.70;1.80;;;19.90;71.90;;;;;;5061880;28;20040;-45
2023/07/13 10:19:27;;;;;;;4.78;2.08;;;19.10;75.10;;;;;;5071620;28;20045;-43
2023/07/13 10:22:11;;;;;;;6.45;2.33;;;18.80;77.70;;;;;;5074892;28;20074;-46
2023/07/13 10:24:40;;;;;;;6.22;1.90;;;18.40;78.90;;;;;;5074221;28;20063;-45
2023/07/13 10:27:34;;;;;;;4.15;1.65;;;18.20;80.30;;;;;;5063675;28;20025;-43
2023/07/13 10:30:19;;;;;;;4.35;2.20;;;18.30;81.60;;;;;;5070991;28;20060;-44
2023/07/13 10:32:47;;;;;;;5.57;2.33;;;18.40;81.80;;;;;;5058470;28;20021;-42
2023/07/13 10:35:18;;;;;;;4.78;2.17;;;18.60;82.40;;;;;;5053317;28;20033;-41
2023/07/13 10:38:06;;;;;;;6.03;3.38;;;18.80;82.70;;;;;;5055258;28;20033;-42
2023/07/13 10:40:54;;;;;;;5.05;2.20;;;18.90;83.00;;;;;;5065971;28;20446;-41
2023/07/13 10:43:37;;;;;;;6.22;2.78;;;19.30;83.80;;;;;;5055652;28;20114;-42
2023/07/13 10:46:06;;;;;;;5.10;2.60;;;19.90;84.90;;;;;;5073333;28;20024;-44
2023/07/13 10:48:36;;;;;;;5.25;2.10;;;20.20;81.90;;;;;;5073222;28;20121;-43
2023/07/13 10:51:06;;;;;;;4.85;2.78;;;20.60;82.50;;;;;;5073251;28;20033;-45
2023/07/13 10:53:39;;;;;;;7.25;2.92;;;21.10;81.80;;;;;;5073629;28;20020;-46
2023/07/13 10:56:29;;;;;;;5.40;2.00;;;21.50;80.30;;;;;;5073116;28;20032;-47
2023/07/13 10:59:27;;;;;;;3.03;1.52;;;21.90;78.10;;;;;;5065575;28;20104;-45
2023/07/13 11:02:02;;;;;;;6.10;2.67;;;22.40;77.10;;;;;;5052063;28;20439;-47
2023/07/13 11:04:40;;;;;;;5.75;2.60;;;22.90;74.40;;;;;;5071352;28;20024;-46
2023/07/13 11:07:28;;;;;;;5.53;2.70;;;22.60;70.80;;;;;;5069941;28;20024;-45
2023/07/13 11:10:00;;;;;;;7.32;1.98;;;22.20;71.00;;;;;;5074462;28;20114;-49
2023/07/13 11:12:47;;;;;;;5.22;2.20;;;21.60;69.10;;;;;;5074290;28;20020;-49
2023/07/13 11:15:26;;;;;;;3.55;1.70;;;21.40;69.70;;;;;;5058049;28;20032;-46
2023/07/13 11:18:00;;;;;;;4.80;1.90;;;21.20;70.60;;;;;;5068932;28;20099;-46
2023/07/13 11:20:39;;;;;;;3.63;1.67;;;20.80;71.10;;;;;;5073060;28;20040;-47
2023/07/13 11:23:16;;;;;;;6.32;1.33;;;20.30;70.50;;;;;;5054135;28;20036;-47
2023/07/13 11:25:43;;;;;;;5.25;1.25;;;19.90;70.40;;;;;;5066445;28;20111;-48
2023/07/13 11:28:10;;;;;;;2.92;1.42;;;19.70;71.10;;;;;;5073464;28;20024;-45
2023/07/13 11:30:56;;;;;;;4.82;1.20;;;19.60;71.70;;;;;;5073095;28;20362;-50
2023/07/13 11:33:38;;;;;;;4.25;1.60;;;19.30;73.60;;;;;;5065839;28;20120;-45
2023/07/13 11:36:19;;;;;;;4.45;1.25;;;19.20;74.00;;;;;;5073022;28;20066;-45
2023/07/13 11:39:12;;;;;;;4.70;2.10;;;18.90;75.00;;;;;;5072592;28;20358;-49
2023/07/13 11:42:01;;;;;;;4.97;2.20;;;18.90;75.80;;;;;;5067137;28;20033;-45
2023/07/13 11:44:29;;;;;;;4.22;1.52;;;18.60;76.50;;;;;;5070617;28;20058;-46
2023/07/13 11:47:08;;;;;;;4.10;1.35;;;18.50;77.00;;;;;;5068100;28;20354;-49
2023/07/13 11:49:46;;;;;;;5.33;2.03;;;18.40;77.30;;;;;;5038973;28;20331;-48
2023/07/13 11:52:21;;;;;;;4.57;1.88;;;18.30;77.50;;;;;;5070808;28;20028;-47
2023/07/13 11:54:55;;;;;;;6.30;2.15;;;18.20;78.10;;;;;;5057478;28;20409;-48
2023/07/13 11:57:33;;;;;;;4.63;1.50;;;18.10;78.20;;;;;;5053866;28;20101;-49
2023/07/13 12:00:10;;;;;;;6.38;2.50;;;17.90;78.60;;;;;;5068494;28;20025;-49
2023/07/13 12:02:43;;;;;;;4.97;2.33;;;17.80;79.00;;;;;;5073188;28;20468;-48
2023/07/13 12:05:15;;;;;;;4.65;1.70;;;17.80;79.20;;;;;;5054775;28;20025;-48
2023/07/13 12:07:42;;;;;;;5.38;1.33;;;17.80;79.50;;;;;;5072371;28;20029;-47
2023/07/13 12:10:18;;;;;;;4.38;2.38;;;17.80;79.10;;;;;;5061599;28;20793;-47
2023/07/13 12:13:07;;;;;;;4.35;1.85;;;17.90;79.40;;;;;;5053037;28;20431;-47
2023/07/13 12:15:56;;;;;;;6.47;3.10;;;17.90;80.20;;;;;;5055300;28;20029;-49
2023/07/13 12:18:29;;;;;;;5.70;2.45;;;17.90;80.50;;;;;;5055075;28;20032;-48
2023/07/13 12:20:59;;;;;;;5.32;2.90;;;18.00;81.20;;;;;;5053001;28;20477;-47
2023/07/13 12:23:44;;;;;;;4.95;2.70;;;18.10;81.90;;;;;;5053154;28;20112;-48
2023/07/13 12:26:12;;;;;;;5.07;3.25;;;18.30;82.70;;;;;;5058359;28;20041;-47
2023/07/13 12:28:48;;;;;;;6.05;3.08;;;18.40;82.60;;;;;;5071029;28;20067;-48
2023/07/13 12:31:40;;;;;;;5.45;2.70;;;18.80;82.20;;;;;;5068780;28;20031;-48
2023/07/13 12:34:18;;;;;;;4.80;2.90;;;19.20;82.00;;;;;;5069246;28;20073;-49
2023/07/13 12:37:02;;;;;;;4.28;1.83;;;19.60;81.80;;;;;;5072246;28;20035;-49
2023/07/13 12:39:47;;;;;;;4.28;1.63;;;19.90;77.50;;;;;;5071683;28;20058;-49
2023/07/13 12:42:32;;;;;;;3.95;1.95;;;19.90;76.60;;;;;;5071598;28;20416;-48
2023/07/13 12:45:09;;;;;;;4.18;1.60;;;19.90;76.50;;;;;;5070663;28;20457;-47
2023/07/13 12:47:49;;;;;;;3.70;2.05;;;19.80;76.00;;;;;;5072413;28;20059;-49
2023/07/13 12:50:26;;;;;;;4.65;2.15;;;20.20;77.10;;;;;;5072248;28;20395;-48
2023/07/13 12:52:54;;;;;;;5.93;2.40;;;20.10;75.20;;;;;;5071393;28;20017;-48
2023/07/13 12:55:21;;;;;;;5.38;2.25;;;20.10;77.00;;;;;;5070061;28;20048;-49
2023/07/13 12:58:06;;;;;;;6.07;1.75;;;20.40;77.50;;;;;;5072524;28;20036;-48
2023/07/13 13:00:39;;;;;;;4.05;1.88;;;20.30;74.30;;;;;;5071097;28;20078;-48
2023/07/13 13:03:21;;;;;;;5.28;1.88;;;20.10;74.30;;;;;;5061502;28;20029;-46
2023/07/13 13:05:49;;;;;;;6.32;1.95;;;19.90;76.50;;;;;;5070565;28;20033;-45
2023/07/13 13:08:15;;;;;;;4.90;2.13;;;19.70;76.60;;;;;;5067013;28;20063;-48